createdAt,value
2023-08-24T00:00:11.302Z,67.77
2023-08-24T00:00:43.313Z,67.06
2023-08-24T00:01:15.474Z,67.71
2023-08-24T00:01:47.402Z,67.02
2023-08-24T00:02:19.421Z,67.37
2023-08-24T00:02:51.385Z,68.37
2023-08-24T00:03:23.974Z,68.12
2023-08-24T00:03:55.957Z,67.63
2023-08-24T00:04:28.087Z,68.49
2023-08-24T00:04:59.990Z,68.46
2023-08-24T00:05:36.254Z,67.64
2023-08-24T00:06:08.236Z,68.47
2023-08-24T00:06:40.172Z,67.71
2023-08-24T00:07:13.002Z,68.51
2023-08-24T00:07:45.008Z,67.59
2023-08-24T00:08:16.982Z,67.28
2023-08-24T00:08:48.960Z,67.62
2023-08-24T00:09:21.055Z,67.59
2023-08-24T00:09:54.420Z,67.75
2023-08-24T00:10:27.085Z,67.67
2023-08-24T00:10:59.077Z,67.70
2023-08-24T00:11:31.713Z,68.05
2023-08-24T00:12:03.651Z,68.11
2023-08-24T00:12:36.943Z,68.08
2023-08-24T00:13:08.972Z,68.19
2023-08-24T00:13:40.949Z,68.97
2023-08-24T00:14:12.862Z,68.42
2023-08-24T00:14:44.786Z,68.65
2023-08-24T00:15:16.693Z,68.05
2023-08-24T00:15:48.714Z,68.92
2023-08-24T00:16:21.480Z,68.32
2023-08-24T00:16:53.515Z,67.95
2023-08-24T00:17:26.103Z,68.20
2023-08-24T00:17:58.275Z,68.94
2023-08-24T00:18:30.184Z,69.12
2023-08-24T00:19:02.478Z,68.19
2023-08-24T00:19:34.388Z,67.64
2023-08-24T00:20:12.145Z,68.19
2023-08-24T00:20:44.152Z,68.56
2023-08-24T00:21:18.305Z,69.14
2023-08-24T00:21:50.304Z,68.53
2023-08-24T00:22:22.263Z,68.32
2023-08-24T00:22:54.240Z,68.66
2023-08-24T00:23:26.812Z,68.38
2023-08-24T00:23:58.741Z,68.84
2023-08-24T00:24:30.782Z,68.79
2023-08-24T00:25:02.760Z,68.66
2023-08-24T00:25:34.684Z,68.68
2023-08-24T00:26:06.579Z,68.93
2023-08-24T00:26:38.550Z,69.41
2023-08-24T00:27:10.857Z,68.91
2023-08-24T00:27:42.798Z,69.59
2023-08-24T00:28:14.732Z,69.31
2023-08-24T00:28:46.879Z,69.13
2023-08-24T00:29:18.844Z,69.58
2023-08-24T00:29:50.745Z,69.79
2023-08-24T00:30:22.810Z,69.83
2023-08-24T00:30:54.709Z,69.80
2023-08-24T00:31:26.653Z,69.93
2023-08-24T00:31:58.759Z,69.83
2023-08-24T00:32:30.698Z,70.05
2023-08-24T00:33:02.787Z,69.13
2023-08-24T00:33:34.776Z,69.90
2023-08-24T00:34:06.714Z,69.18
2023-08-24T00:34:38.680Z,69.79
2023-08-24T00:35:11.785Z,69.56
2023-08-24T00:35:43.749Z,70.20
2023-08-24T00:36:16.393Z,70.20
2023-08-24T00:36:48.348Z,70.32
2023-08-24T00:37:20.272Z,69.62
2023-08-24T00:37:52.575Z,70.39
2023-08-24T00:38:24.760Z,69.61
2023-08-24T00:38:56.658Z,70.08
2023-08-24T00:39:28.572Z,70.08
2023-08-24T00:40:11.308Z,69.69
2023-08-24T00:40:44.962Z,69.81
2023-08-24T00:41:16.914Z,69.85
2023-08-24T00:41:48.815Z,70.59
2023-08-24T00:42:20.827Z,70.50
2023-08-24T00:42:52.733Z,70.63
2023-08-24T00:43:25.465Z,70.09
2023-08-24T00:43:57.441Z,70.00
2023-08-24T00:44:29.364Z,70.80
2023-08-24T00:45:01.282Z,69.91
2023-08-24T00:45:34.564Z,70.36
2023-08-24T00:46:06.669Z,70.33
2023-08-24T00:46:38.608Z,70.59
2023-08-24T00:47:10.560Z,70.05
2023-08-24T00:47:46.406Z,69.91
2023-08-24T00:48:19.547Z,69.92
2023-08-24T00:48:53.015Z,70.08
2023-08-24T00:49:24.949Z,69.81
2023-08-24T00:49:57.308Z,70.06
2023-08-24T00:50:29.414Z,70.36
2023-08-24T00:51:02.587Z,70.76
2023-08-24T00:51:35.801Z,70.04
2023-08-24T00:52:07.952Z,70.37
2023-08-24T00:52:41.996Z,70.99
2023-08-24T00:53:14.185Z,70.35
2023-08-24T00:53:47.097Z,70.58
2023-08-24T00:54:19.876Z,70.66
2023-08-24T00:54:51.806Z,71.03
2023-08-24T00:55:23.833Z,70.43
2023-08-24T00:55:55.920Z,71.34
2023-08-24T00:56:28.145Z,71.59
2023-08-24T00:57:00.071Z,71.18
2023-08-24T00:57:33.300Z,71.27
2023-08-24T00:58:05.425Z,71.50
2023-08-24T00:58:37.347Z,71.18
2023-08-24T00:59:09.293Z,70.83
2023-08-24T00:59:41.323Z,71.45
2023-08-24T01:00:13.469Z,71.34
2023-08-24T01:00:45.452Z,71.04
2023-08-24T01:01:19.061Z,71.21
2023-08-24T01:01:52.346Z,71.36
2023-08-24T01:02:24.342Z,71.05
2023-08-24T01:02:56.593Z,71.41
2023-08-24T01:03:28.598Z,70.71
2023-08-24T01:04:00.811Z,71.31
2023-08-24T01:04:32.706Z,71.25
2023-08-24T01:05:07.849Z,71.66
2023-08-24T01:05:39.859Z,70.93
2023-08-24T01:06:11.765Z,71.46
2023-08-24T01:06:43.755Z,71.24
2023-08-24T01:07:17.229Z,71.56
2023-08-24T01:07:49.731Z,71.50
2023-08-24T01:08:23.052Z,71.61
2023-08-24T01:08:55.455Z,71.82
2023-08-24T01:09:27.360Z,71.34
2023-08-24T01:09:59.470Z,71.73
2023-08-24T01:10:43.001Z,71.61
2023-08-24T01:11:23.611Z,71.32
2023-08-24T01:12:19.006Z,71.62
2023-08-24T01:12:50.946Z,71.83
2023-08-24T01:13:36.185Z,71.84
2023-08-24T01:14:41.627Z,71.57
2023-08-24T01:15:37.652Z,71.56
2023-08-24T01:16:20.789Z,71.61
2023-08-24T01:16:58.157Z,72.54
2023-08-24T01:17:31.885Z,72.42
2023-08-24T01:18:08.646Z,72.05
2023-08-24T01:18:40.696Z,72.28
2023-08-24T01:19:28.978Z,72.28
2023-08-24T01:20:00.992Z,72.65
2023-08-24T01:20:35.193Z,72.62
2023-08-24T01:21:07.323Z,72.58
2023-08-24T01:21:39.608Z,72.57
2023-08-24T01:22:34.111Z,73.21
2023-08-24T01:23:10.395Z,73.30
2023-08-24T01:23:55.554Z,73.09
2023-08-24T01:24:54.932Z,72.25
2023-08-24T01:25:54.450Z,72.51
2023-08-24T01:26:27.513Z,72.53
2023-08-24T01:27:00.412Z,73.14
2023-08-24T01:27:36.028Z,72.77
2023-08-24T01:28:09.603Z,73.33
2023-08-24T01:28:43.699Z,73.71
2023-08-24T01:29:16.730Z,73.16
2023-08-24T01:29:48.958Z,73.14
2023-08-24T01:30:21.199Z,73.71
2023-08-24T01:30:53.523Z,73.39
2023-08-24T01:31:26.150Z,73.16
2023-08-24T01:31:58.432Z,73.63
2023-08-24T01:32:33.041Z,73.40
2023-08-24T01:33:13.139Z,73.95
2023-08-24T01:33:46.114Z,72.78
2023-08-24T01:34:18.087Z,72.88
2023-08-24T01:34:50.227Z,73.26
2023-08-24T01:35:22.158Z,73.53
2023-08-24T01:35:54.091Z,73.12
2023-08-24T01:36:26.499Z,73.04
2023-08-24T01:36:58.551Z,73.56
2023-08-24T01:37:31.957Z,73.43
2023-08-24T01:38:05.088Z,73.94
2023-08-24T01:38:37.117Z,73.72
2023-08-24T01:39:16.319Z,73.43
2023-08-24T01:39:58.058Z,73.69
2023-08-24T01:40:41.485Z,74.14
2023-08-24T01:41:18.610Z,74.38
2023-08-24T01:41:54.422Z,74.24
2023-08-24T01:42:28.782Z,73.86
2023-08-24T01:43:05.128Z,74.01
2023-08-24T01:43:44.001Z,73.85
2023-08-24T01:44:19.850Z,73.29
2023-08-24T01:44:53.786Z,73.90
2023-08-24T01:45:31.275Z,73.25
2023-08-24T01:46:06.889Z,74.07
2023-08-24T01:46:39.297Z,73.62
2023-08-24T01:47:12.984Z,74.03
2023-08-24T01:47:45.527Z,73.33
2023-08-24T01:48:17.578Z,73.52
2023-08-24T01:48:50.138Z,73.57
2023-08-24T01:49:23.176Z,73.57
2023-08-24T01:49:55.735Z,74.01
2023-08-24T01:50:27.808Z,73.38
2023-08-24T01:51:01.284Z,74.13
2023-08-24T01:51:34.984Z,73.91
2023-08-24T01:52:07.127Z,73.57
2023-08-24T01:52:39.137Z,74.27
2023-08-24T01:53:11.221Z,73.93
2023-08-24T01:53:44.092Z,73.95
2023-08-24T01:54:16.020Z,74.01
2023-08-24T01:54:49.391Z,74.38
2023-08-24T01:55:21.702Z,73.95
2023-08-24T01:55:54.561Z,73.37
2023-08-24T01:56:26.570Z,73.64
2023-08-24T01:56:58.543Z,73.59
2023-08-24T01:57:30.568Z,74.07
2023-08-24T01:58:02.539Z,73.51
2023-08-24T01:58:34.481Z,73.43
2023-08-24T01:59:06.431Z,73.25
2023-08-24T01:59:38.409Z,73.88
2023-08-24T02:00:10.933Z,73.23
2023-08-24T02:00:42.948Z,73.65
2023-08-24T02:01:15.016Z,73.66
2023-08-24T02:01:47.016Z,73.54
2023-08-24T02:02:18.945Z,73.37
2023-08-24T02:02:51.031Z,73.18
2023-08-24T02:03:23.146Z,73.69
2023-08-24T02:03:55.186Z,73.37
2023-08-24T02:04:27.146Z,73.42
2023-08-24T02:04:59.048Z,74.04
2023-08-24T02:05:31.010Z,73.76
2023-08-24T02:06:03.068Z,73.80
2023-08-24T02:06:34.984Z,73.89
2023-08-24T02:07:06.888Z,73.13
2023-08-24T02:07:40.340Z,73.31
2023-08-24T02:08:12.279Z,73.39
2023-08-24T02:08:45.978Z,72.90
2023-08-24T02:09:17.910Z,73.48
2023-08-24T02:09:49.819Z,72.97
2023-08-24T02:10:21.800Z,72.89
2023-08-24T02:10:53.719Z,73.28
2023-08-24T02:11:25.692Z,73.06
2023-08-24T02:11:57.598Z,73.11
2023-08-24T02:12:29.513Z,73.01
2023-08-24T02:13:01.429Z,73.24
2023-08-24T02:13:33.494Z,73.32
2023-08-24T02:14:05.631Z,73.62
2023-08-24T02:14:37.565Z,73.52
2023-08-24T02:15:09.882Z,73.01
2023-08-24T02:15:41.798Z,73.51
2023-08-24T02:16:14.234Z,73.53
2023-08-24T02:16:46.801Z,73.35
2023-08-24T02:17:18.745Z,73.34
2023-08-24T02:17:50.773Z,73.20
2023-08-24T02:18:22.764Z,72.28
2023-08-24T02:18:54.675Z,73.21
2023-08-24T02:19:26.643Z,73.14
2023-08-24T02:19:58.753Z,73.22
2023-08-24T02:20:30.659Z,73.24
2023-08-24T02:21:09.903Z,73.10
2023-08-24T02:21:41.929Z,73.05
2023-08-24T02:22:13.876Z,73.35
2023-08-24T02:22:45.771Z,72.59
2023-08-24T02:23:17.683Z,72.04
2023-08-24T02:23:49.591Z,72.46
2023-08-24T02:24:21.490Z,73.06
2023-08-24T02:24:53.815Z,72.33
2023-08-24T02:25:25.741Z,72.24
2023-08-24T02:25:58.030Z,72.09
2023-08-24T02:26:29.930Z,72.67
2023-08-24T02:27:02.142Z,72.48
2023-08-24T02:27:34.501Z,72.83
2023-08-24T02:28:06.519Z,72.80
2023-08-24T02:28:38.977Z,72.10
2023-08-24T02:29:11.142Z,72.82
2023-08-24T02:29:43.060Z,72.71
2023-08-24T02:30:15.045Z,72.66
2023-08-24T02:30:46.954Z,72.52
2023-08-24T02:31:18.888Z,72.66
2023-08-24T02:31:51.961Z,73.08
2023-08-24T02:32:23.963Z,72.67
2023-08-24T02:32:55.915Z,73.25
2023-08-24T02:33:27.845Z,72.49
2023-08-24T02:33:59.812Z,72.70
2023-08-24T02:34:32.610Z,73.00
2023-08-24T02:35:04.962Z,72.95
2023-08-24T02:35:36.948Z,73.23
2023-08-24T02:36:08.870Z,72.76
2023-08-24T02:36:40.816Z,73.50
2023-08-24T02:37:12.739Z,72.58
2023-08-24T02:37:44.643Z,73.24
2023-08-24T02:38:16.592Z,73.40
2023-08-24T02:38:48.523Z,72.83
2023-08-24T02:39:20.447Z,73.38
2023-08-24T02:39:52.407Z,73.14
2023-08-24T02:40:24.608Z,73.53
2023-08-24T02:41:07.561Z,73.47
2023-08-24T02:41:39.519Z,73.51
2023-08-24T02:42:11.440Z,73.55
2023-08-24T02:42:43.342Z,73.51
2023-08-24T02:43:15.247Z,73.55
2023-08-24T02:43:47.743Z,73.16
2023-08-24T02:44:19.828Z,73.92
2023-08-24T02:44:51.800Z,73.71
2023-08-24T02:45:23.862Z,73.69
2023-08-24T02:45:55.828Z,73.93
2023-08-24T02:46:27.857Z,73.92
2023-08-24T02:46:59.815Z,73.60
2023-08-24T02:47:32.049Z,73.74
2023-08-24T02:48:04.533Z,73.87
2023-08-24T02:48:36.917Z,74.00
2023-08-24T02:49:08.998Z,73.54
2023-08-24T02:49:40.996Z,73.61
2023-08-24T02:50:12.915Z,73.49
2023-08-24T02:50:48.794Z,73.99
2023-08-24T02:51:22.894Z,73.59
2023-08-24T02:51:54.814Z,73.33
2023-08-24T02:52:26.944Z,73.88
2023-08-24T02:53:02.940Z,73.34
2023-08-24T02:53:35.028Z,73.28
2023-08-24T02:54:06.959Z,73.49
2023-08-24T02:54:38.873Z,73.65
2023-08-24T02:55:11.335Z,74.06
2023-08-24T02:55:43.275Z,73.52
2023-08-24T02:56:15.265Z,74.30
2023-08-24T02:56:47.171Z,73.74
2023-08-24T02:57:19.120Z,73.79
2023-08-24T02:57:51.255Z,74.24
2023-08-24T02:58:23.749Z,74.46
2023-08-24T02:58:55.736Z,73.71
2023-08-24T02:59:27.654Z,73.77
2023-08-24T02:59:59.589Z,74.37
2023-08-24T03:00:31.507Z,74.26
2023-08-24T03:01:09.987Z,73.78
2023-08-24T03:01:42.205Z,74.05
2023-08-24T03:02:14.395Z,73.64
2023-08-24T03:02:46.360Z,74.12
2023-08-24T03:03:18.604Z,73.78
2023-08-24T03:03:50.832Z,74.04
2023-08-24T03:04:23.163Z,73.72
2023-08-24T03:04:56.652Z,73.91
2023-08-24T03:05:28.602Z,74.00
2023-08-24T03:06:05.631Z,74.49
2023-08-24T03:06:37.559Z,74.32
2023-08-24T03:07:11.606Z,74.80
2023-08-24T03:07:43.540Z,74.33
2023-08-24T03:08:15.453Z,74.25
2023-08-24T03:08:47.379Z,74.19
2023-08-24T03:09:19.342Z,74.12
2023-08-24T03:09:51.260Z,74.81
2023-08-24T03:10:23.211Z,74.89
2023-08-24T03:10:55.213Z,74.48
2023-08-24T03:11:27.119Z,75.09
2023-08-24T03:11:59.037Z,74.79
2023-08-24T03:12:31.006Z,74.76
2023-08-24T03:13:04.094Z,74.81
2023-08-24T03:13:39.495Z,75.08
2023-08-24T03:14:11.514Z,74.72
2023-08-24T03:14:43.560Z,74.57
2023-08-24T03:15:15.465Z,75.30
2023-08-24T03:15:47.402Z,74.75
2023-08-24T03:16:19.426Z,74.90
2023-08-24T03:16:51.646Z,75.03
2023-08-24T03:17:24.242Z,75.14
2023-08-24T03:17:56.193Z,75.05
2023-08-24T03:18:28.098Z,74.72
2023-08-24T03:19:00.022Z,74.72
2023-08-24T03:19:32.162Z,75.29
2023-08-24T03:20:04.954Z,75.23
2023-08-24T03:20:36.880Z,75.34
2023-08-24T03:21:08.854Z,75.51
2023-08-24T03:21:40.781Z,75.25
2023-08-24T03:22:12.700Z,75.44
2023-08-24T03:22:44.620Z,75.24
2023-08-24T03:23:17.211Z,75.25
2023-08-24T03:23:49.139Z,75.49
2023-08-24T03:24:21.040Z,75.00
2023-08-24T03:24:52.934Z,74.82
2023-08-24T03:25:24.992Z,75.15
2023-08-24T03:25:57.593Z,75.24
2023-08-24T03:26:29.569Z,75.65
2023-08-24T03:27:01.475Z,75.35
2023-08-24T03:27:33.592Z,75.45
2023-08-24T03:28:06.114Z,75.27
2023-08-24T03:28:38.247Z,75.67
2023-08-24T03:29:10.153Z,75.76
2023-08-24T03:29:42.063Z,75.46
2023-08-24T03:30:14.663Z,75.42
2023-08-24T03:30:55.480Z,75.88
2023-08-24T03:31:27.591Z,76.02
2023-08-24T03:31:59.538Z,75.69
2023-08-24T03:32:31.491Z,75.51
2023-08-24T03:33:04.033Z,75.83
2023-08-24T03:33:36.001Z,75.63
2023-08-24T03:34:07.964Z,75.92
2023-08-24T03:34:41.354Z,75.85
2023-08-24T03:35:13.278Z,75.92
2023-08-24T03:35:45.307Z,76.05
2023-08-24T03:36:17.218Z,75.89
2023-08-24T03:36:49.352Z,75.83
2023-08-24T03:37:21.332Z,76.40
2023-08-24T03:37:53.351Z,76.09
2023-08-24T03:38:25.297Z,76.00
2023-08-24T03:38:57.212Z,76.04
2023-08-24T03:39:29.142Z,76.29
2023-08-24T03:40:01.066Z,75.92
2023-08-24T03:40:33.027Z,76.17
2023-08-24T03:41:05.297Z,76.14
2023-08-24T03:41:37.216Z,76.29
2023-08-24T03:42:09.189Z,76.29
2023-08-24T03:42:41.096Z,76.27
2023-08-24T03:43:13.121Z,76.10
2023-08-24T03:43:45.061Z,76.38
2023-08-24T03:44:16.980Z,76.51
2023-08-24T03:44:49.083Z,76.20
2023-08-24T03:45:21.655Z,75.91
2023-08-24T03:45:53.622Z,76.54
2023-08-24T03:46:25.855Z,76.41
2023-08-24T03:46:57.966Z,76.50
2023-08-24T03:47:29.995Z,76.44
2023-08-24T03:48:01.968Z,76.67
2023-08-24T03:48:34.247Z,76.85
2023-08-24T03:49:06.179Z,76.56
2023-08-24T03:49:38.881Z,76.49
2023-08-24T03:50:10.805Z,76.77
2023-08-24T03:50:42.907Z,76.42
2023-08-24T03:51:14.821Z,76.57
2023-08-24T03:51:46.805Z,76.13
2023-08-24T03:52:18.710Z,76.70
2023-08-24T03:52:55.540Z,76.74
2023-08-24T03:53:27.461Z,76.94
2023-08-24T03:53:59.395Z,76.76
2023-08-24T03:54:31.383Z,76.85
2023-08-24T03:55:03.447Z,76.97
2023-08-24T03:55:35.629Z,76.80
2023-08-24T03:56:07.557Z,76.80
2023-08-24T03:56:40.960Z,77.23
2023-08-24T03:57:12.875Z,77.06
2023-08-24T03:57:44.787Z,77.10
2023-08-24T03:58:17.158Z,76.90
2023-08-24T03:58:49.060Z,77.06
2023-08-24T03:59:21.521Z,76.99
2023-08-24T03:59:53.437Z,77.02
2023-08-24T04:00:25.656Z,76.76
2023-08-24T04:00:57.596Z,77.28
2023-08-24T04:01:29.556Z,76.92
2023-08-24T04:02:04.217Z,77.06
2023-08-24T04:02:36.212Z,77.09
2023-08-24T04:03:08.357Z,76.91
2023-08-24T04:03:40.708Z,77.04
2023-08-24T04:04:12.660Z,77.15
2023-08-24T04:04:44.883Z,77.54
2023-08-24T04:05:16.836Z,77.28
2023-08-24T04:05:48.812Z,77.37
2023-08-24T04:06:21.652Z,77.47
2023-08-24T04:06:53.814Z,77.45
2023-08-24T04:07:25.734Z,77.11
2023-08-24T04:07:57.652Z,77.44
2023-08-24T04:08:29.615Z,77.33
2023-08-24T04:09:01.558Z,77.51
2023-08-24T04:09:34.203Z,77.66
2023-08-24T04:10:06.852Z,77.64
2023-08-24T04:10:38.952Z,77.25
2023-08-24T04:11:10.878Z,77.43
2023-08-24T04:11:42.775Z,76.99
2023-08-24T04:12:14.680Z,77.11
2023-08-24T04:12:46.608Z,77.37
2023-08-24T04:13:18.534Z,77.58
2023-08-24T04:13:50.499Z,77.30
2023-08-24T04:14:22.409Z,77.09
2023-08-24T04:14:54.329Z,77.35
2023-08-24T04:15:26.292Z,77.23
2023-08-24T04:15:58.238Z,77.60
2023-08-24T04:16:30.169Z,77.48
2023-08-24T04:17:02.072Z,77.39
2023-08-24T04:17:34.044Z,77.52
2023-08-24T04:18:06.093Z,77.48
2023-08-24T04:18:38.088Z,77.71
2023-08-24T04:19:10.263Z,77.48
2023-08-24T04:19:42.327Z,77.34
2023-08-24T04:20:14.304Z,77.43
2023-08-24T04:20:46.212Z,77.52
2023-08-24T04:21:18.113Z,77.48
2023-08-24T04:21:50.049Z,77.06
2023-08-24T04:22:21.988Z,76.75
2023-08-24T04:22:53.928Z,76.95
2023-08-24T04:23:29.496Z,77.19
2023-08-24T04:24:01.419Z,77.09
2023-08-24T04:24:33.398Z,77.54
2023-08-24T04:25:05.764Z,77.23
2023-08-24T04:25:41.226Z,77.55
2023-08-24T04:26:14.256Z,77.37
2023-08-24T04:26:46.337Z,77.72
2023-08-24T04:27:18.341Z,77.31
2023-08-24T04:27:50.990Z,77.25
2023-08-24T04:28:23.083Z,77.24
2023-08-24T04:28:55.010Z,77.36
2023-08-24T04:29:26.943Z,77.14
2023-08-24T04:29:58.911Z,77.59
2023-08-24T04:30:30.868Z,77.71
2023-08-24T04:31:02.812Z,77.54
2023-08-24T04:31:34.742Z,77.49
2023-08-24T04:32:07.535Z,77.89
2023-08-24T04:32:39.541Z,77.65
2023-08-24T04:33:11.542Z,77.46
2023-08-24T04:33:43.560Z,77.49
2023-08-24T04:34:15.529Z,77.92
2023-08-24T04:34:47.600Z,77.67
2023-08-24T04:35:19.676Z,77.80
2023-08-24T04:35:52.069Z,77.65
2023-08-24T04:36:24.045Z,77.75
2023-08-24T04:36:56.624Z,77.63
2023-08-24T04:37:28.591Z,77.88
2023-08-24T04:38:00.502Z,77.82
2023-08-24T04:38:32.433Z,78.21
2023-08-24T04:39:04.393Z,77.75
2023-08-24T04:39:36.533Z,77.62
2023-08-24T04:40:08.721Z,77.84
2023-08-24T04:40:51.254Z,77.96
2023-08-24T04:41:23.160Z,77.88
2023-08-24T04:41:55.107Z,77.91
2023-08-24T04:42:27.018Z,77.84
2023-08-24T04:42:58.979Z,77.99
2023-08-24T04:43:30.944Z,77.42
2023-08-24T04:44:02.859Z,77.62
2023-08-24T04:44:35.165Z,77.52
2023-08-24T04:45:07.611Z,78.03
2023-08-24T04:45:39.531Z,77.64
2023-08-24T04:46:11.478Z,77.43
2023-08-24T04:46:43.454Z,77.75
2023-08-24T04:47:15.435Z,77.34
2023-08-24T04:47:47.414Z,77.66
2023-08-24T04:48:23.524Z,77.73
2023-08-24T04:48:55.453Z,77.87
2023-08-24T04:49:27.408Z,77.85
2023-08-24T04:49:59.376Z,77.23
2023-08-24T04:50:31.349Z,77.70
2023-08-24T04:51:03.904Z,77.46
2023-08-24T04:51:35.852Z,77.74
2023-08-24T04:52:07.783Z,77.62
2023-08-24T04:52:39.699Z,76.97
2023-08-24T04:53:15.609Z,77.32
2023-08-24T04:53:47.516Z,77.28
2023-08-24T04:54:19.662Z,77.48
2023-08-24T04:54:51.593Z,77.28
2023-08-24T04:55:24.148Z,77.25
2023-08-24T04:55:57.276Z,76.97
2023-08-24T04:56:29.188Z,76.96
2023-08-24T04:57:01.159Z,77.07
2023-08-24T04:57:33.069Z,76.64
2023-08-24T04:58:04.973Z,77.02
2023-08-24T04:58:36.869Z,77.64
2023-08-24T04:59:09.081Z,77.37
2023-08-24T04:59:41.078Z,77.39
2023-08-24T05:00:17.199Z,76.96
2023-08-24T05:00:50.148Z,77.03
2023-08-24T05:01:22.130Z,77.22
2023-08-24T05:01:54.054Z,77.03
2023-08-24T05:02:26.057Z,76.97
2023-08-24T05:02:58.054Z,77.35
2023-08-24T05:03:29.964Z,77.24
2023-08-24T05:04:02.011Z,77.08
2023-08-24T05:04:33.931Z,76.76
2023-08-24T05:05:06.299Z,77.08
2023-08-24T05:05:38.861Z,77.01
2023-08-24T05:06:10.779Z,77.04
2023-08-24T05:06:42.827Z,76.55
2023-08-24T05:07:14.741Z,76.36
2023-08-24T05:07:46.668Z,76.10
2023-08-24T05:08:18.586Z,76.53
2023-08-24T05:08:50.724Z,76.03
2023-08-24T05:09:24.005Z,76.68
2023-08-24T05:09:55.947Z,76.30
2023-08-24T05:10:31.853Z,76.67
2023-08-24T05:11:15.011Z,76.53
2023-08-24T05:11:46.910Z,76.56
2023-08-24T05:12:18.825Z,76.62
2023-08-24T05:12:50.747Z,76.20
2023-08-24T05:13:23.865Z,76.11
2023-08-24T05:13:56.522Z,75.98
2023-08-24T05:14:28.469Z,75.71
2023-08-24T05:15:00.598Z,76.15
2023-08-24T05:15:32.530Z,75.56
2023-08-24T05:16:04.644Z,75.88
2023-08-24T05:16:36.699Z,75.49
2023-08-24T05:17:08.675Z,75.59
2023-08-24T05:17:41.361Z,75.67
2023-08-24T05:18:13.330Z,75.43
2023-08-24T05:18:45.512Z,76.05
2023-08-24T05:19:17.471Z,75.79
2023-08-24T05:19:53.541Z,75.37
2023-08-24T05:20:25.476Z,75.96
2023-08-24T05:20:57.383Z,75.35
2023-08-24T05:21:29.291Z,75.51
2023-08-24T05:22:01.326Z,76.01
2023-08-24T05:22:33.309Z,75.79
2023-08-24T05:23:05.220Z,75.96
2023-08-24T05:23:37.149Z,75.48
2023-08-24T05:24:09.069Z,75.46
2023-08-24T05:24:41.102Z,75.83
2023-08-24T05:25:13.232Z,75.10
2023-08-24T05:25:46.278Z,75.27
2023-08-24T05:26:23.865Z,75.46
2023-08-24T05:26:55.827Z,75.29
2023-08-24T05:27:27.804Z,75.14
2023-08-24T05:27:59.765Z,75.18
2023-08-24T05:28:33.024Z,75.12
2023-08-24T05:29:04.933Z,74.56
2023-08-24T05:29:36.907Z,74.86
2023-08-24T05:30:09.254Z,74.63
2023-08-24T05:30:41.304Z,74.24
2023-08-24T05:31:13.334Z,74.36
2023-08-24T05:31:45.323Z,74.81
2023-08-24T05:32:17.243Z,74.62
2023-08-24T05:32:49.199Z,74.90
2023-08-24T05:33:21.605Z,74.44
2023-08-24T05:33:53.514Z,74.04
2023-08-24T05:34:25.513Z,74.64
2023-08-24T05:34:57.557Z,74.10
2023-08-24T05:35:29.682Z,74.53
2023-08-24T05:36:01.910Z,74.29
2023-08-24T05:36:33.815Z,74.65
2023-08-24T05:37:05.727Z,73.51
2023-08-24T05:37:37.711Z,74.05
2023-08-24T05:38:09.689Z,73.89
2023-08-24T05:38:59.513Z,74.21
2023-08-24T05:39:35.923Z,73.87
2023-08-24T05:40:08.304Z,73.57
2023-08-24T05:40:40.328Z,73.85
2023-08-24T05:41:12.603Z,73.27
2023-08-24T05:41:44.553Z,73.79
2023-08-24T05:42:16.492Z,73.46
2023-08-24T05:42:48.452Z,73.42
2023-08-24T05:43:21.161Z,73.77
2023-08-24T05:43:54.137Z,73.81
2023-08-24T05:44:26.038Z,73.79
2023-08-24T05:44:57.968Z,73.09
2023-08-24T05:45:29.930Z,73.04
2023-08-24T05:46:02.666Z,73.36
2023-08-24T05:46:34.748Z,72.23
2023-08-24T05:47:06.784Z,73.31
2023-08-24T05:47:38.840Z,72.64
2023-08-24T05:48:11.114Z,73.20
2023-08-24T05:48:43.078Z,73.25
2023-08-24T05:49:15.019Z,73.49
2023-08-24T05:49:47.061Z,72.65
2023-08-24T05:50:19.039Z,72.93
2023-08-24T05:50:50.958Z,72.61
2023-08-24T05:51:22.848Z,73.44
2023-08-24T05:51:54.772Z,73.44
2023-08-24T05:52:26.704Z,73.06
2023-08-24T05:52:58.677Z,72.09
2023-08-24T05:53:30.590Z,72.80
2023-08-24T05:54:02.527Z,71.95
2023-08-24T05:54:34.535Z,72.51
2023-08-24T05:55:06.912Z,72.67
2023-08-24T05:55:39.414Z,71.89
2023-08-24T05:56:11.339Z,72.30
2023-08-24T05:56:43.299Z,72.53
2023-08-24T05:57:15.255Z,72.76
2023-08-24T05:57:47.674Z,72.30
2023-08-24T05:58:19.701Z,72.33
2023-08-24T05:58:52.201Z,71.91
2023-08-24T05:59:24.553Z,72.28
2023-08-24T05:59:56.467Z,72.60
2023-08-24T06:00:28.508Z,72.77
2023-08-24T06:01:00.534Z,71.90
2023-08-24T06:01:32.517Z,71.69
2023-08-24T06:02:04.617Z,72.24
2023-08-24T06:02:40.312Z,71.68
2023-08-24T06:03:12.248Z,72.18
2023-08-24T06:03:44.791Z,72.12
2023-08-24T06:04:16.841Z,70.97
2023-08-24T06:04:48.769Z,71.58
2023-08-24T06:05:20.712Z,70.99
2023-08-24T06:05:53.033Z,71.91
2023-08-24T06:06:24.972Z,71.82
2023-08-24T06:06:56.907Z,70.64
2023-08-24T06:07:28.928Z,70.59
2023-08-24T06:08:02.595Z,70.61
2023-08-24T06:08:34.628Z,71.12
2023-08-24T06:09:08.763Z,71.17
2023-08-24T06:09:42.273Z,70.24
2023-08-24T06:10:14.225Z,71.49
2023-08-24T06:10:46.162Z,70.99
2023-08-24T06:11:18.086Z,70.50
2023-08-24T06:11:50.017Z,71.35
2023-08-24T06:12:21.976Z,70.42
2023-08-24T06:12:54.172Z,69.97
2023-08-24T06:13:26.134Z,69.77
2023-08-24T06:13:58.039Z,70.58
2023-08-24T06:14:29.976Z,69.98
2023-08-24T06:15:05.012Z,70.94
2023-08-24T06:15:36.928Z,70.97
2023-08-24T06:16:08.972Z,70.65
2023-08-24T06:16:41.012Z,69.39
2023-08-24T06:17:12.944Z,69.39
2023-08-24T06:17:44.893Z,69.36
2023-08-24T06:18:17.418Z,70.18
2023-08-24T06:18:50.972Z,69.93
2023-08-24T06:19:23.173Z,70.07
2023-08-24T06:19:55.155Z,68.51
2023-08-24T06:20:27.097Z,69.40
2023-08-24T06:20:59.021Z,68.45
2023-08-24T06:21:30.951Z,68.90
2023-08-24T06:22:02.926Z,69.07
2023-08-24T06:22:34.835Z,68.71
2023-08-24T06:23:08.810Z,68.20
2023-08-24T06:23:40.765Z,68.54
2023-08-24T06:24:14.272Z,68.16
2023-08-24T06:24:46.255Z,69.29
2023-08-24T06:25:18.263Z,68.42
2023-08-24T06:25:50.513Z,69.06
2023-08-24T06:26:22.627Z,68.44
2023-08-24T06:26:54.540Z,68.95
2023-08-24T06:27:26.709Z,68.86
2023-08-24T06:28:00.151Z,67.93
2023-08-24T06:28:32.386Z,68.88
2023-08-24T06:29:04.716Z,68.16
2023-08-24T06:29:37.843Z,68.64
2023-08-24T06:30:10.201Z,68.58
2023-08-24T06:30:44.625Z,68.16
2023-08-24T06:31:17.552Z,67.55
2023-08-24T06:31:49.552Z,67.76
2023-08-24T06:32:21.513Z,67.48
2023-08-24T06:32:53.473Z,67.64
2023-08-24T06:33:32.121Z,67.54
2023-08-24T06:34:04.039Z,67.75
2023-08-24T06:34:36.063Z,68.64
2023-08-24T06:35:08.228Z,68.80
2023-08-24T06:35:41.705Z,67.52
2023-08-24T06:36:13.614Z,68.00
2023-08-24T06:36:45.567Z,66.40
2023-08-24T06:37:17.471Z,67.56
2023-08-24T06:37:49.848Z,67.06
2023-08-24T06:38:22.071Z,66.65
2023-08-24T06:38:54.005Z,67.08
2023-08-24T06:39:26.160Z,66.85
2023-08-24T06:39:58.074Z,66.56
2023-08-24T06:40:30.274Z,66.35
2023-08-24T06:41:02.228Z,66.15
2023-08-24T06:41:37.241Z,66.10
2023-08-24T06:42:09.177Z,66.86
2023-08-24T06:42:41.138Z,65.80
2023-08-24T06:43:13.087Z,67.16
2023-08-24T06:43:45.126Z,66.76
2023-08-24T06:44:17.040Z,65.65
2023-08-24T06:44:51.309Z,65.78
2023-08-24T06:45:23.464Z,66.35
2023-08-24T06:45:58.664Z,66.27
2023-08-24T06:46:30.846Z,65.83
2023-08-24T06:47:05.585Z,66.20
2023-08-24T06:47:38.041Z,66.61
2023-08-24T06:48:10.062Z,65.55
2023-08-24T06:48:44.460Z,64.55
2023-08-24T06:49:16.361Z,65.85
2023-08-24T06:49:48.262Z,65.33
2023-08-24T06:50:22.990Z,65.48
2023-08-24T06:50:55.012Z,65.04
2023-08-24T06:51:27.829Z,64.95
2023-08-24T06:51:59.736Z,65.50
2023-08-24T06:52:31.661Z,65.52
2023-08-24T06:53:04.710Z,64.74
2023-08-24T06:53:36.617Z,65.47
2023-08-24T06:54:08.582Z,65.57
2023-08-24T06:54:40.645Z,65.71
2023-08-24T06:55:13.230Z,64.36
2023-08-24T06:55:45.138Z,64.44
2023-08-24T06:56:18.773Z,63.98
2023-08-24T06:56:50.681Z,64.36
2023-08-24T06:57:23.209Z,63.96
2023-08-24T06:57:55.162Z,63.63
2023-08-24T06:58:27.129Z,63.08
2023-08-24T06:58:59.056Z,62.63
2023-08-24T06:59:31.033Z,62.44
2023-08-24T07:00:08.028Z,62.22
2023-08-24T07:00:40.909Z,61.64
2023-08-24T07:01:13.060Z,62.42
2023-08-24T07:01:45.121Z,62.53
2023-08-24T07:02:18.947Z,62.46
2023-08-24T07:02:51.592Z,62.16